sensor_id;sensor_type;location;lat;lon;timestamp;temperature;humidity
16287;DHT22;8251;53.568;10.018;2023-08-07T00:01:23;19.90;85.90
16287;DHT22;8251;53.568;10.018;2023-08-07T00:03:52;19.90;85.60
16287;DHT22;8251;53.568;10.018;2023-08-07T00:06:18;19.80;85.30
16287;DHT22;8251;53.568;10.018;2023-08-07T00:08:45;19.80;85.20
16287;DHT22;8251;53.568;10.018;2023-08-07T00:11:12;19.80;85.10
16287;DHT22;8251;53.568;10.018;2023-08-07T00:13:39;19.80;84.90
16287;DHT22;8251;53.568;10.018;2023-08-07T00:16:06;19.80;84.50
16287;DHT22;8251;53.568;10.018;2023-08-07T00:18:33;19.80;84.50
16287;DHT22;8251;53.568;10.018;2023-08-07T00:21:01;19.80;84.30
16287;DHT22;8251;53.568;10.018;2023-08-07T00:23:28;19.80;84.30
16287;DHT22;8251;53.568;10.018;2023-08-07T00:25:55;19.80;84.30
16287;DHT22;8251;53.568;10.018;2023-08-07T00:28:22;19.80;84.20
16287;DHT22;8251;53.568;10.018;2023-08-07T00:30:49;19.70;83.70
16287;DHT22;8251;53.568;10.018;2023-08-07T00:33:15;19.70;83.90
16287;DHT22;8251;53.568;10.018;2023-08-07T00:35:42;19.80;83.80
16287;DHT22;8251;53.568;10.018;2023-08-07T00:38:10;19.70;83.50
16287;DHT22;8251;53.568;10.018;2023-08-07T00:40:38;19.70;83.50
16287;DHT22;8251;53.568;10.018;2023-08-07T00:43:05;19.70;83.50
16287;DHT22;8251;53.568;10.018;2023-08-07T00:45:35;19.70;83.30
16287;DHT22;8251;53.568;10.018;2023-08-07T00:48:03;19.70;83.30
16287;DHT22;8251;53.568;10.018;2023-08-07T00:50:30;19.60;83.00
16287;DHT22;8251;53.568;10.018;2023-08-07T00:52:57;19.60;83.10
16287;DHT22;8251;53.568;10.018;2023-08-07T00:55:26;19.60;83.10
16287;DHT22;8251;53.568;10.018;2023-08-07T00:57:53;19.60;82.80
16287;DHT22;8251;53.568;10.018;2023-08-07T01:00:20;19.60;83.00
16287;DHT22;8251;53.568;10.018;2023-08-07T01:02:47;19.60;83.00
16287;DHT22;8251;53.568;10.018;2023-08-07T01:05:16;19.60;82.80
16287;DHT22;8251;53.568;10.018;2023-08-07T01:07:47;19.60;82.90
16287;DHT22;8251;53.568;10.018;2023-08-07T01:10:17;19.50;82.90
16287;DHT22;8251;53.568;10.018;2023-08-07T01:12:54;19.50;83.10
16287;DHT22;8251;53.568;10.018;2023-08-07T01:15:25;19.60;83.20
16287;DHT22;8251;53.568;10.018;2023-08-07T01:17:56;19.50;83.30
16287;DHT22;8251;53.568;10.018;2023-08-07T01:20:24;19.60;83.60
16287;DHT22;8251;53.568;10.018;2023-08-07T01:22:52;19.60;83.90
16287;DHT22;8251;53.568;10.018;2023-08-07T01:25:19;19.60;84.10
16287;DHT22;8251;53.568;10.018;2023-08-07T01:27:59;19.50;84.30
16287;DHT22;8251;53.568;10.018;2023-08-07T01:30:33;19.60;84.50
16287;DHT22;8251;53.568;10.018;2023-08-07T01:33:09;19.50;84.90
16287;DHT22;8251;53.568;10.018;2023-08-07T01:35:40;19.50;85.10
16287;DHT22;8251;53.568;10.018;2023-08-07T01:38:09;19.50;85.30
16287;DHT22;8251;53.568;10.018;2023-08-07T01:40:37;19.50;85.50
16287;DHT22;8251;53.568;10.018;2023-08-07T01:43:05;19.50;85.70
16287;DHT22;8251;53.568;10.018;2023-08-07T01:45:32;19.50;85.80
16287;DHT22;8251;53.568;10.018;2023-08-07T01:48:00;19.40;85.90
16287;DHT22;8251;53.568;10.018;2023-08-07T01:50:27;19.40;86.10
16287;DHT22;8251;53.568;10.018;2023-08-07T01:52:55;19.40;86.30
16287;DHT22;8251;53.568;10.018;2023-08-07T01:55:23;19.40;86.50
16287;DHT22;8251;53.568;10.018;2023-08-07T01:57:50;19.40;86.60
16287;DHT22;8251;53.568;10.018;2023-08-07T02:00:17;19.30;86.60
16287;DHT22;8251;53.568;10.018;2023-08-07T02:02:44;19.30;86.60
16287;DHT22;8251;53.568;10.018;2023-08-07T02:05:12;19.30;86.60
16287;DHT22;8251;53.568;10.018;2023-08-07T02:07:39;19.30;86.50
16287;DHT22;8251;53.568;10.018;2023-08-07T02:10:06;19.30;86.60
16287;DHT22;8251;53.568;10.018;2023-08-07T02:12:34;19.30;86.70
16287;DHT22;8251;53.568;10.018;2023-08-07T02:15:01;19.20;86.80
16287;DHT22;8251;53.568;10.018;2023-08-07T02:17:29;19.20;86.90
16287;DHT22;8251;53.568;10.018;2023-08-07T02:19:57;19.20;86.80
16287;DHT22;8251;53.568;10.018;2023-08-07T02:22:23;19.20;86.80
16287;DHT22;8251;53.568;10.018;2023-08-07T02:24:50;19.10;86.90
16287;DHT22;8251;53.568;10.018;2023-08-07T02:27:17;19.10;87.00
16287;DHT22;8251;53.568;10.018;2023-08-07T02:29:45;19.10;87.10
16287;DHT22;8251;53.568;10.018;2023-08-07T02:32:12;19.10;87.20
16287;DHT22;8251;53.568;10.018;2023-08-07T02:34:39;19.10;87.20
16287;DHT22;8251;53.568;10.018;2023-08-07T02:37:06;19.10;87.00
16287;DHT22;8251;53.568;10.018;2023-08-07T02:39:33;19.10;86.90
16287;DHT22;8251;53.568;10.018;2023-08-07T02:41:59;19.10;86.70
16287;DHT22;8251;53.568;10.018;2023-08-07T02:44:26;19.10;86.60
16287;DHT22;8251;53.568;10.018;2023-08-07T02:46:55;19.00;86.40
16287;DHT22;8251;53.568;10.018;2023-08-07T02:49:21;19.00;86.40
16287;DHT22;8251;53.568;10.018;2023-08-07T02:51:48;19.00;86.40
16287;DHT22;8251;53.568;10.018;2023-08-07T02:54:15;19.00;86.60
16287;DHT22;8251;53.568;10.018;2023-08-07T02:56:43;19.00;86.40
16287;DHT22;8251;53.568;10.018;2023-08-07T02:59:10;19.00;86.50
16287;DHT22;8251;53.568;10.018;2023-08-07T03:01:36;19.00;86.50
16287;DHT22;8251;53.568;10.018;2023-08-07T03:04:05;19.00;86.40
16287;DHT22;8251;53.568;10.018;2023-08-07T03:06:32;19.00;86.40
16287;DHT22;8251;53.568;10.018;2023-08-07T03:08:59;19.00;86.40
16287;DHT22;8251;53.568;10.018;2023-08-07T03:11:26;19.00;86.50
16287;DHT22;8251;53.568;10.018;2023-08-07T03:13:52;19.00;86.40
16287;DHT22;8251;53.568;10.018;2023-08-07T03:16:19;19.10;86.50
16287;DHT22;8251;53.568;10.018;2023-08-07T03:18:46;19.10;86.60
16287;DHT22;8251;53.568;10.018;2023-08-07T03:21:15;19.10;86.70
16287;DHT22;8251;53.568;10.018;2023-08-07T03:23:41;19.10;86.70
16287;DHT22;8251;53.568;10.018;2023-08-07T03:26:10;19.10;86.70
16287;DHT22;8251;53.568;10.018;2023-08-07T03:28:37;19.10;86.70
16287;DHT22;8251;53.568;10.018;2023-08-07T03:31:08;19.10;86.70
16287;DHT22;8251;53.568;10.018;2023-08-07T03:33:41;19.20;86.90
16287;DHT22;8251;53.568;10.018;2023-08-07T03:36:11;19.10;87.00
16287;DHT22;8251;53.568;10.018;2023-08-07T03:38:39;19.20;87.10
16287;DHT22;8251;53.568;10.018;2023-08-07T03:41:06;19.20;87.20
16287;DHT22;8251;53.568;10.018;2023-08-07T03:43:33;19.20;87.30
16287;DHT22;8251;53.568;10.018;2023-08-07T03:46:00;19.10;87.40
16287;DHT22;8251;53.568;10.018;2023-08-07T03:48:27;19.20;87.50
16287;DHT22;8251;53.568;10.018;2023-08-07T03:51:02;19.20;87.60
16287;DHT22;8251;53.568;10.018;2023-08-07T03:53:29;19.20;87.70
16287;DHT22;8251;53.568;10.018;2023-08-07T03:55:57;19.20;87.90
16287;DHT22;8251;53.568;10.018;2023-08-07T03:58:24;19.20;87.80
16287;DHT22;8251;53.568;10.018;2023-08-07T04:00:51;19.20;88.00
16287;DHT22;8251;53.568;10.018;2023-08-07T04:03:19;19.10;88.10
16287;DHT22;8251;53.568;10.018;2023-08-07T04:05:46;19.10;88.40
16287;DHT22;8251;53.568;10.018;2023-08-07T04:08:13;19.20;88.50
16287;DHT22;8251;53.568;10.018;2023-08-07T04:10:40;19.20;88.60
16287;DHT22;8251;53.568;10.018;2023-08-07T04:13:08;19.10;88.70
16287;DHT22;8251;53.568;10.018;2023-08-07T04:15:35;19.10;88.80
16287;DHT22;8251;53.568;10.018;2023-08-07T04:18:02;19.10;88.90
16287;DHT22;8251;53.568;10.018;2023-08-07T04:20:29;19.10;89.00
16287;DHT22;8251;53.568;10.018;2023-08-07T04:22:55;19.10;89.10
16287;DHT22;8251;53.568;10.018;2023-08-07T04:25:22;19.10;89.30
16287;DHT22;8251;53.568;10.018;2023-08-07T04:27:49;19.10;89.50
16287;DHT22;8251;53.568;10.018;2023-08-07T04:30:17;19.10;89.70
16287;DHT22;8251;53.568;10.018;2023-08-07T04:32:44;19.10;89.90
16287;DHT22;8251;53.568;10.018;2023-08-07T04:35:11;19.10;90.00
16287;DHT22;8251;53.568;10.018;2023-08-07T04:37:38;19.10;90.00
16287;DHT22;8251;53.568;10.018;2023-08-07T04:40:06;19.10;90.00
16287;DHT22;8251;53.568;10.018;2023-08-07T04:42:34;19.10;90.00
16287;DHT22;8251;53.568;10.018;2023-08-07T04:45:00;19.10;90.00
16287;DHT22;8251;53.568;10.018;2023-08-07T04:47:29;19.10;90.00
16287;DHT22;8251;53.568;10.018;2023-08-07T04:49:55;19.10;90.10
16287;DHT22;8251;53.568;10.018;2023-08-07T04:52:23;19.10;90.20
16287;DHT22;8251;53.568;10.018;2023-08-07T04:54:50;19.10;90.20
16287;DHT22;8251;53.568;10.018;2023-08-07T04:57:16;19.10;90.20
16287;DHT22;8251;53.568;10.018;2023-08-07T04:59:43;19.10;90.30
16287;DHT22;8251;53.568;10.018;2023-08-07T05:02:10;19.10;90.20
16287;DHT22;8251;53.568;10.018;2023-08-07T05:04:38;19.20;90.30
16287;DHT22;8251;53.568;10.018;2023-08-07T05:07:05;19.20;90.40
16287;DHT22;8251;53.568;10.018;2023-08-07T05:09:33;19.20;90.40
16287;DHT22;8251;53.568;10.018;2023-08-07T05:12:00;19.30;90.40
16287;DHT22;8251;53.568;10.018;2023-08-07T05:14:27;19.30;90.30
16287;DHT22;8251;53.568;10.018;2023-08-07T05:16:53;19.30;90.40
16287;DHT22;8251;53.568;10.018;2023-08-07T05:19:20;19.30;90.40
16287;DHT22;8251;53.568;10.018;2023-08-07T05:21:49;19.30;90.40
16287;DHT22;8251;53.568;10.018;2023-08-07T05:24:16;19.30;90.40
16287;DHT22;8251;53.568;10.018;2023-08-07T05:26:43;19.30;90.40
16287;DHT22;8251;53.568;10.018;2023-08-07T05:29:10;19.40;90.40
16287;DHT22;8251;53.568;10.018;2023-08-07T05:31:37;19.40;90.40
16287;DHT22;8251;53.568;10.018;2023-08-07T05:34:03;19.40;90.40
16287;DHT22;8251;53.568;10.018;2023-08-07T05:36:30;19.50;90.30
16287;DHT22;8251;53.568;10.018;2023-08-07T05:39:00;19.40;90.30
16287;DHT22;8251;53.568;10.018;2023-08-07T05:41:26;19.40;90.30
16287;DHT22;8251;53.568;10.018;2023-08-07T05:43:53;19.50;90.30
16287;DHT22;8251;53.568;10.018;2023-08-07T05:46:20;19.50;90.20
16287;DHT22;8251;53.568;10.018;2023-08-07T05:48:47;19.40;90.20
16287;DHT22;8251;53.568;10.018;2023-08-07T05:51:14;19.50;90.30
16287;DHT22;8251;53.568;10.018;2023-08-07T05:53:40;19.40;90.30
16287;DHT22;8251;53.568;10.018;2023-08-07T05:56:09;19.40;90.30
16287;DHT22;8251;53.568;10.018;2023-08-07T05:58:36;19.50;90.40
16287;DHT22;8251;53.568;10.018;2023-08-07T06:01:03;19.40;90.40
16287;DHT22;8251;53.568;10.018;2023-08-07T06:03:30;19.40;90.40
16287;DHT22;8251;53.568;10.018;2023-08-07T06:05:57;19.40;90.50
16287;DHT22;8251;53.568;10.018;2023-08-07T06:08:24;19.40;90.50
16287;DHT22;8251;53.568;10.018;2023-08-07T06:10:50;19.40;90.50
16287;DHT22;8251;53.568;10.018;2023-08-07T06:13:18;19.50;90.40
16287;DHT22;8251;53.568;10.018;2023-08-07T06:15:45;19.50;90.20
16287;DHT22;8251;53.568;10.018;2023-08-07T06:18:13;19.50;90.00
16287;DHT22;8251;53.568;10.018;2023-08-07T06:20:40;19.50;89.70
16287;DHT22;8251;53.568;10.018;2023-08-07T06:23:07;19.40;88.90
16287;DHT22;8251;53.568;10.018;2023-08-07T06:25:35;19.40;88.60
16287;DHT22;8251;53.568;10.018;2023-08-07T06:28:01;19.40;88.60
16287;DHT22;8251;53.568;10.018;2023-08-07T06:30:30;19.30;88.60
16287;DHT22;8251;53.568;10.018;2023-08-07T06:32:57;19.30;88.40
16287;DHT22;8251;53.568;10.018;2023-08-07T06:35:24;19.30;88.50
16287;DHT22;8251;53.568;10.018;2023-08-07T06:37:51;19.30;88.50
16287;DHT22;8251;53.568;10.018;2023-08-07T06:40:18;19.30;88.40
16287;DHT22;8251;53.568;10.018;2023-08-07T06:42:44;19.30;88.40
16287;DHT22;8251;53.568;10.018;2023-08-07T06:45:12;19.40;88.10
16287;DHT22;8251;53.568;10.018;2023-08-07T06:47:40;19.50;88.20
16287;DHT22;8251;53.568;10.018;2023-08-07T06:50:07;19.50;88.20
16287;DHT22;8251;53.568;10.018;2023-08-07T06:52:34;19.50;88.30
16287;DHT22;8251;53.568;10.018;2023-08-07T06:55:01;19.50;87.60
16287;DHT22;8251;53.568;10.018;2023-08-07T06:57:28;19.60;87.40
16287;DHT22;8251;53.568;10.018;2023-08-07T06:59:55;19.50;87.20
16287;DHT22;8251;53.568;10.018;2023-08-07T07:02:22;19.50;86.70
16287;DHT22;8251;53.568;10.018;2023-08-07T07:04:50;19.60;86.80
16287;DHT22;8251;53.568;10.018;2023-08-07T07:07:17;19.60;86.50
16287;DHT22;8251;53.568;10.018;2023-08-07T07:09:44;19.60;85.70
16287;DHT22;8251;53.568;10.018;2023-08-07T07:12:10;19.60;84.50
16287;DHT22;8251;53.568;10.018;2023-08-07T07:14:37;19.60;84.20
16287;DHT22;8251;53.568;10.018;2023-08-07T07:17:05;19.60;83.20
16287;DHT22;8251;53.568;10.018;2023-08-07T07:19:33;19.60;83.20
16287;DHT22;8251;53.568;10.018;2023-08-07T07:22:01;19.60;82.40
16287;DHT22;8251;53.568;10.018;2023-08-07T07:24:29;19.60;82.40
16287;DHT22;8251;53.568;10.018;2023-08-07T07:26:55;19.70;82.20
16287;DHT22;8251;53.568;10.018;2023-08-07T07:29:22;19.80;81.00
16287;DHT22;8251;53.568;10.018;2023-08-07T07:31:49;19.80;80.60
16287;DHT22;8251;53.568;10.018;2023-08-07T07:34:16;19.80;80.60
16287;DHT22;8251;53.568;10.018;2023-08-07T07:36:43;19.80;79.90
16287;DHT22;8251;53.568;10.018;2023-08-07T07:39:12;19.80;80.90
16287;DHT22;8251;53.568;10.018;2023-08-07T07:41:39;19.70;82.50
16287;DHT22;8251;53.568;10.018;2023-08-07T07:44:06;19.60;84.20
16287;DHT22;8251;53.568;10.018;2023-08-07T07:46:32;19.50;84.90
16287;DHT22;8251;53.568;10.018;2023-08-07T07:48:59;19.50;85.70
16287;DHT22;8251;53.568;10.018;2023-08-07T07:51:29;19.50;86.20
16287;DHT22;8251;53.568;10.018;2023-08-07T07:54:00;19.70;86.20
16287;DHT22;8251;53.568;10.018;2023-08-07T07:56:34;19.80;85.50
16287;DHT22;8251;53.568;10.018;2023-08-07T07:59:03;20.00;84.50
16287;DHT22;8251;53.568;10.018;2023-08-07T08:01:30;20.10;83.80
16287;DHT22;8251;53.568;10.018;2023-08-07T08:03:57;20.30;83.60
16287;DHT22;8251;53.568;10.018;2023-08-07T08:06:25;20.60;82.50
16287;DHT22;8251;53.568;10.018;2023-08-07T08:08:52;20.70;81.30
16287;DHT22;8251;53.568;10.018;2023-08-07T08:11:19;20.80;80.00
16287;DHT22;8251;53.568;10.018;2023-08-07T08:13:47;20.80;79.00
16287;DHT22;8251;53.568;10.018;2023-08-07T08:16:14;20.70;76.00
16287;DHT22;8251;53.568;10.018;2023-08-07T08:18:41;20.50;76.70
16287;DHT22;8251;53.568;10.018;2023-08-07T08:21:08;20.40;77.60
16287;DHT22;8251;53.568;10.018;2023-08-07T08:23:35;20.30;79.10
16287;DHT22;8251;53.568;10.018;2023-08-07T08:26:02;20.10;80.60
16287;DHT22;8251;53.568;10.018;2023-08-07T08:28:29;19.90;82.10
16287;DHT22;8251;53.568;10.018;2023-08-07T08:30:57;19.80;83.90
16287;DHT22;8251;53.568;10.018;2023-08-07T08:33:24;19.80;84.70
16287;DHT22;8251;53.568;10.018;2023-08-07T08:35:51;19.70;85.30
16287;DHT22;8251;53.568;10.018;2023-08-07T08:38:18;19.80;86.00
16287;DHT22;8251;53.568;10.018;2023-08-07T08:40:51;19.80;86.20
16287;DHT22;8251;53.568;10.018;2023-08-07T08:43:18;19.70;86.20
16287;DHT22;8251;53.568;10.018;2023-08-07T08:45:45;19.70;86.20
16287;DHT22;8251;53.568;10.018;2023-08-07T08:48:19;19.70;86.50
16287;DHT22;8251;53.568;10.018;2023-08-07T08:50:49;19.70;85.90
16287;DHT22;8251;53.568;10.018;2023-08-07T08:53:17;19.60;85.50
16287;DHT22;8251;53.568;10.018;2023-08-07T08:55:44;19.60;85.20
16287;DHT22;8251;53.568;10.018;2023-08-07T08:58:13;19.60;84.50
16287;DHT22;8251;53.568;10.018;2023-08-07T09:00:41;19.40;85.00
16287;DHT22;8251;53.568;10.018;2023-08-07T09:03:08;19.40;85.00
16287;DHT22;8251;53.568;10.018;2023-08-07T09:05:37;19.30;84.50
16287;DHT22;8251;53.568;10.018;2023-08-07T09:08:04;19.30;84.70
16287;DHT22;8251;53.568;10.018;2023-08-07T09:10:32;19.40;85.10
16287;DHT22;8251;53.568;10.018;2023-08-07T09:13:00;19.40;84.80
16287;DHT22;8251;53.568;10.018;2023-08-07T09:15:32;19.40;83.50
16287;DHT22;8251;53.568;10.018;2023-08-07T09:17:59;19.40;82.30
16287;DHT22;8251;53.568;10.018;2023-08-07T09:20:27;19.50;81.40
16287;DHT22;8251;53.568;10.018;2023-08-07T09:22:55;19.70;81.00
16287;DHT22;8251;53.568;10.018;2023-08-07T09:25:29;19.80;78.90
16287;DHT22;8251;53.568;10.018;2023-08-07T09:27:57;20.00;78.40
16287;DHT22;8251;53.568;10.018;2023-08-07T09:30:26;20.20;75.50
16287;DHT22;8251;53.568;10.018;2023-08-07T09:32:54;20.50;74.50
16287;DHT22;8251;53.568;10.018;2023-08-07T09:35:23;20.70;72.40
16287;DHT22;8251;53.568;10.018;2023-08-07T09:37:50;20.80;70.80
16287;DHT22;8251;53.568;10.018;2023-08-07T09:40:19;21.00;71.40
16287;DHT22;8251;53.568;10.018;2023-08-07T09:42:50;21.20;70.80
16287;DHT22;8251;53.568;10.018;2023-08-07T09:45:23;21.30;70.40
16287;DHT22;8251;53.568;10.018;2023-08-07T09:48:11;21.40;69.20
16287;DHT22;8251;53.568;10.018;2023-08-07T09:51:14;21.60;66.10
16287;DHT22;8251;53.568;10.018;2023-08-07T09:53:47;22.00;66.50
16287;DHT22;8251;53.568;10.018;2023-08-07T09:56:20;22.40;64.90
16287;DHT22;8251;53.568;10.018;2023-08-07T09:58:55;22.70;63.80
16287;DHT22;8251;53.568;10.018;2023-08-07T10:01:26;23.10;63.50
16287;DHT22;8251;53.568;10.018;2023-08-07T10:03:53;23.40;62.90
16287;DHT22;8251;53.568;10.018;2023-08-07T10:06:20;23.80;59.60
16287;DHT22;8251;53.568;10.018;2023-08-07T10:08:49;24.10;59.20
16287;DHT22;8251;53.568;10.018;2023-08-07T10:11:17;24.30;59.70
16287;DHT22;8251;53.568;10.018;2023-08-07T10:13:45;24.50;57.20
16287;DHT22;8251;53.568;10.018;2023-08-07T10:16:12;24.60;57.30
16287;DHT22;8251;53.568;10.018;2023-08-07T10:18:40;24.80;58.80
16287;DHT22;8251;53.568;10.018;2023-08-07T10:21:06;24.70;57.50
16287;DHT22;8251;53.568;10.018;2023-08-07T10:23:35;24.50;58.10
16287;DHT22;8251;53.568;10.018;2023-08-07T10:26:05;24.20;57.50
16287;DHT22;8251;53.568;10.018;2023-08-07T10:28:39;24.00;54.70
16287;DHT22;8251;53.568;10.018;2023-08-07T10:31:06;23.90;56.20
16287;DHT22;8251;53.568;10.018;2023-08-07T10:33:34;23.80;57.20
16287;DHT22;8251;53.568;10.018;2023-08-07T10:36:08;23.70;58.10
16287;DHT22;8251;53.568;10.018;2023-08-07T10:38:35;23.50;57.90
16287;DHT22;8251;53.568;10.018;2023-08-07T10:41:06;23.20;57.70
16287;DHT22;8251;53.568;10.018;2023-08-07T10:43:38;22.90;58.90
16287;DHT22;8251;53.568;10.018;2023-08-07T10:46:06;22.80;60.20
16287;DHT22;8251;53.568;10.018;2023-08-07T10:48:40;22.60;60.70
16287;DHT22;8251;53.568;10.018;2023-08-07T10:51:07;22.80;59.90
16287;DHT22;8251;53.568;10.018;2023-08-07T10:53:36;23.30;60.90
16287;DHT22;8251;53.568;10.018;2023-08-07T10:56:05;23.90;59.20
16287;DHT22;8251;53.568;10.018;2023-08-07T10:58:37;24.50;58.60
16287;DHT22;8251;53.568;10.018;2023-08-07T11:01:18;24.60;56.10
16287;DHT22;8251;53.568;10.018;2023-08-07T11:03:48;24.30;55.60
16287;DHT22;8251;53.568;10.018;2023-08-07T11:06:15;23.90;56.50
16287;DHT22;8251;53.568;10.018;2023-08-07T11:08:43;23.60;57.70
16287;DHT22;8251;53.568;10.018;2023-08-07T11:11:10;23.30;57.80
16287;DHT22;8251;53.568;10.018;2023-08-07T11:13:38;23.20;57.80
16287;DHT22;8251;53.568;10.018;2023-08-07T11:16:05;23.30;58.10
16287;DHT22;8251;53.568;10.018;2023-08-07T11:18:32;23.40;57.40
16287;DHT22;8251;53.568;10.018;2023-08-07T11:21:01;23.20;57.50
16287;DHT22;8251;53.568;10.018;2023-08-07T11:23:29;22.80;60.70
16287;DHT22;8251;53.568;10.018;2023-08-07T11:25:56;22.40;61.70
16287;DHT22;8251;53.568;10.018;2023-08-07T11:28:23;22.20;63.60
16287;DHT22;8251;53.568;10.018;2023-08-07T11:30:52;22.00;64.90
16287;DHT22;8251;53.568;10.018;2023-08-07T11:33:21;21.90;65.00
16287;DHT22;8251;53.568;10.018;2023-08-07T11:35:49;22.00;65.70
16287;DHT22;8251;53.568;10.018;2023-08-07T11:38:29;22.20;65.60
16287;DHT22;8251;53.568;10.018;2023-08-07T11:40:58;22.40;64.80
16287;DHT22;8251;53.568;10.018;2023-08-07T11:43:27;22.70;65.10
16287;DHT22;8251;53.568;10.018;2023-08-07T11:45:55;22.90;64.10
16287;DHT22;8251;53.568;10.018;2023-08-07T11:48:24;23.10;64.00
16287;DHT22;8251;53.568;10.018;2023-08-07T11:50:52;23.10;63.90
16287;DHT22;8251;53.568;10.018;2023-08-07T11:53:19;23.00;63.90
16287;DHT22;8251;53.568;10.018;2023-08-07T11:55:47;22.80;63.70
16287;DHT22;8251;53.568;10.018;2023-08-07T11:58:18;22.50;64.10
16287;DHT22;8251;53.568;10.018;2023-08-07T12:00:44;22.40;64.80
16287;DHT22;8251;53.568;10.018;2023-08-07T12:03:31;22.20;64.70
16287;DHT22;8251;53.568;10.018;2023-08-07T12:06:03;22.20;63.60
16287;DHT22;8251;53.568;10.018;2023-08-07T12:08:34;22.20;65.20
16287;DHT22;8251;53.568;10.018;2023-08-07T12:11:02;22.30;65.20
16287;DHT22;8251;53.568;10.018;2023-08-07T12:13:30;22.30;64.80
16287;DHT22;8251;53.568;10.018;2023-08-07T12:15:58;22.10;68.10
16287;DHT22;8251;53.568;10.018;2023-08-07T12:18:26;21.90;68.70
16287;DHT22;8251;53.568;10.018;2023-08-07T12:20:58;21.50;67.90
16287;DHT22;8251;53.568;10.018;2023-08-07T12:23:26;21.30;69.20
16287;DHT22;8251;53.568;10.018;2023-08-07T12:25:53;21.20;68.90
16287;DHT22;8251;53.568;10.018;2023-08-07T12:28:20;21.10;68.50
16287;DHT22;8251;53.568;10.018;2023-08-07T12:30:47;21.00;68.20
16287;DHT22;8251;53.568;10.018;2023-08-07T12:33:15;21.00;68.80
16287;DHT22;8251;53.568;10.018;2023-08-07T12:35:42;21.00;69.80
16287;DHT22;8251;53.568;10.018;2023-08-07T12:38:10;21.10;69.70
16287;DHT22;8251;53.568;10.018;2023-08-07T12:40:39;21.20;69.20
16287;DHT22;8251;53.568;10.018;2023-08-07T12:43:06;21.20;69.40
16287;DHT22;8251;53.568;10.018;2023-08-07T12:45:34;21.10;71.00
16287;DHT22;8251;53.568;10.018;2023-08-07T12:48:01;20.90;72.80
16287;DHT22;8251;53.568;10.018;2023-08-07T12:50:28;20.80;73.80
16287;DHT22;8251;53.568;10.018;2023-08-07T12:52:55;20.70;75.40
16287;DHT22;8251;53.568;10.018;2023-08-07T12:55:24;20.70;75.30
16287;DHT22;8251;53.568;10.018;2023-08-07T12:57:52;20.60;75.10
16287;DHT22;8251;53.568;10.018;2023-08-07T13:00:20;20.60;75.90
16287;DHT22;8251;53.568;10.018;2023-08-07T13:02:48;20.70;75.80
16287;DHT22;8251;53.568;10.018;2023-08-07T13:05:16;20.60;75.10
16287;DHT22;8251;53.568;10.018;2023-08-07T13:07:44;20.60;75.90
16287;DHT22;8251;53.568;10.018;2023-08-07T13:10:12;20.50;76.10
16287;DHT22;8251;53.568;10.018;2023-08-07T13:12:43;20.40;75.90
16287;DHT22;8251;53.568;10.018;2023-08-07T13:15:13;20.40;76.80
16287;DHT22;8251;53.568;10.018;2023-08-07T13:17:40;20.50;75.70
16287;DHT22;8251;53.568;10.018;2023-08-07T13:20:08;20.70;75.60
16287;DHT22;8251;53.568;10.018;2023-08-07T13:22:35;21.10;74.60
16287;DHT22;8251;53.568;10.018;2023-08-07T13:25:02;21.40;72.10
16287;DHT22;8251;53.568;10.018;2023-08-07T13:27:30;21.50;68.80
16287;DHT22;8251;53.568;10.018;2023-08-07T13:29:58;21.60;68.60
16287;DHT22;8251;53.568;10.018;2023-08-07T13:32:25;21.60;69.10
16287;DHT22;8251;53.568;10.018;2023-08-07T13:34:53;21.70;69.40
16287;DHT22;8251;53.568;10.018;2023-08-07T13:37:20;21.80;68.60
16287;DHT22;8251;53.568;10.018;2023-08-07T13:39:47;21.80;67.50
16287;DHT22;8251;53.568;10.018;2023-08-07T13:42:16;21.60;67.80
16287;DHT22;8251;53.568;10.018;2023-08-07T13:44:43;21.50;68.10
16287;DHT22;8251;53.568;10.018;2023-08-07T13:47:11;21.40;68.70
16287;DHT22;8251;53.568;10.018;2023-08-07T13:49:39;21.30;69.40
16287;DHT22;8251;53.568;10.018;2023-08-07T13:52:06;21.30;70.10
16287;DHT22;8251;53.568;10.018;2023-08-07T13:54:33;21.50;71.30
16287;DHT22;8251;53.568;10.018;2023-08-07T13:57:00;21.70;70.00
16287;DHT22;8251;53.568;10.018;2023-08-07T13:59:27;21.80;67.10
16287;DHT22;8251;53.568;10.018;2023-08-07T14:01:53;21.80;66.20
16287;DHT22;8251;53.568;10.018;2023-08-07T14:04:23;21.70;64.70
16287;DHT22;8251;53.568;10.018;2023-08-07T14:06:50;21.70;65.20
16287;DHT22;8251;53.568;10.018;2023-08-07T14:09:17;21.70;65.20
16287;DHT22;8251;53.568;10.018;2023-08-07T14:11:47;21.60;63.50
16287;DHT22;8251;53.568;10.018;2023-08-07T14:14:14;21.60;65.10
16287;DHT22;8251;53.568;10.018;2023-08-07T14:16:41;21.50;64.90
16287;DHT22;8251;53.568;10.018;2023-08-07T14:19:08;21.70;64.50
16287;DHT22;8251;53.568;10.018;2023-08-07T14:21:36;21.80;64.10
16287;DHT22;8251;53.568;10.018;2023-08-07T14:24:05;21.80;62.70
16287;DHT22;8251;53.568;10.018;2023-08-07T14:26:32;21.70;62.50
16287;DHT22;8251;53.568;10.018;2023-08-07T14:28:59;21.60;63.20
16287;DHT22;8251;53.568;10.018;2023-08-07T14:31:26;21.50;64.00
16287;DHT22;8251;53.568;10.018;2023-08-07T14:33:52;21.50;64.30
16287;DHT22;8251;53.568;10.018;2023-08-07T14:36:19;21.40;64.10
16287;DHT22;8251;53.568;10.018;2023-08-07T14:38:47;21.40;64.10
16287;DHT22;8251;53.568;10.018;2023-08-07T14:41:14;21.20;63.20
16287;DHT22;8251;53.568;10.018;2023-08-07T14:43:41;21.20;64.70
16287;DHT22;8251;53.568;10.018;2023-08-07T14:46:08;21.20;65.40
16287;DHT22;8251;53.568;10.018;2023-08-07T14:48:35;21.40;66.20
16287;DHT22;8251;53.568;10.018;2023-08-07T14:51:02;21.40;64.90
16287;DHT22;8251;53.568;10.018;2023-08-07T14:53:29;21.50;64.70
16287;DHT22;8251;53.568;10.018;2023-08-07T14:55:57;21.60;65.70
16287;DHT22;8251;53.568;10.018;2023-08-07T14:58:24;21.60;65.50
16287;DHT22;8251;53.568;10.018;2023-08-07T15:00:54;21.40;65.90
16287;DHT22;8251;53.568;10.018;2023-08-07T15:03:20;21.30;65.50
16287;DHT22;8251;53.568;10.018;2023-08-07T15:05:47;21.10;67.00
16287;DHT22;8251;53.568;10.018;2023-08-07T15:08:15;20.90;68.70
16287;DHT22;8251;53.568;10.018;2023-08-07T15:10:42;20.80;70.40
16287;DHT22;8251;53.568;10.018;2023-08-07T15:13:10;20.70;70.40
16287;DHT22;8251;53.568;10.018;2023-08-07T15:15:37;20.70;70.00
16287;DHT22;8251;53.568;10.018;2023-08-07T15:18:04;20.60;70.80
16287;DHT22;8251;53.568;10.018;2023-08-07T15:20:33;20.60;71.20
16287;DHT22;8251;53.568;10.018;2023-08-07T15:23:01;20.60;71.70
16287;DHT22;8251;53.568;10.018;2023-08-07T15:25:31;20.60;75.30
16287;DHT22;8251;53.568;10.018;2023-08-07T15:27:58;20.40;76.30
16287;DHT22;8251;53.568;10.018;2023-08-07T15:30:27;20.40;77.70
16287;DHT22;8251;53.568;10.018;2023-08-07T15:32:56;20.40;77.80
16287;DHT22;8251;53.568;10.018;2023-08-07T15:35:23;20.30;76.40